createdAt,value
2017-05-06T00:00:22.402Z,6.92
2017-05-06T00:01:23.177Z,6.99
2017-05-06T00:02:24.205Z,6.99
2017-05-06T00:03:24.980Z,6.96
2017-05-06T00:04:25.754Z,6.97
2017-05-06T00:05:26.532Z,6.92
2017-05-06T00:06:27.304Z,6.99
2017-05-06T00:07:28.381Z,6.95
2017-05-06T00:08:29.158Z,7.00
2017-05-06T00:09:29.934Z,7.00
2017-05-06T00:10:30.710Z,6.96
2017-05-06T00:11:31.679Z,6.84
2017-05-06T00:12:32.706Z,6.97
2017-05-06T00:13:33.482Z,6.82
2017-05-06T00:14:34.261Z,6.84
2017-05-06T00:15:35.033Z,6.85
2017-05-06T00:16:35.810Z,6.84
2017-05-06T00:17:36.836Z,6.88
2017-05-06T00:18:37.610Z,6.85
2017-05-06T00:19:38.384Z,6.85
2017-05-06T00:20:39.160Z,6.87
2017-05-06T00:21:39.935Z,6.92
2017-05-06T00:22:40.959Z,6.89
2017-05-06T00:23:41.738Z,6.85
2017-05-06T00:24:42.515Z,6.84
2017-05-06T00:25:43.291Z,6.88
2017-05-06T00:26:44.069Z,6.89
2017-05-06T00:27:45.145Z,6.82
2017-05-06T00:28:45.918Z,6.88
2017-05-06T00:29:46.887Z,6.84
2017-05-06T00:30:47.661Z,6.81
2017-05-06T00:31:48.437Z,6.89
2017-05-06T00:32:49.463Z,6.88
2017-05-06T00:33:50.240Z,6.85
2017-05-06T00:34:51.019Z,6.81
2017-05-06T00:35:51.793Z,6.82
2017-05-06T00:36:52.568Z,6.81
2017-05-06T00:37:53.596Z,6.79
2017-05-06T00:38:54.366Z,6.77
2017-05-06T00:39:55.143Z,6.70
2017-05-06T00:40:55.922Z,6.75
2017-05-06T00:41:56.697Z,6.75
2017-05-06T00:42:57.723Z,6.70
2017-05-06T00:43:58.499Z,6.72
2017-05-06T00:44:59.272Z,6.75
2017-05-06T00:46:00.049Z,6.70
2017-05-06T00:47:00.826Z,6.70
2017-05-06T00:48:01.850Z,6.85
2017-05-06T00:49:02.626Z,6.78
2017-05-06T00:50:03.403Z,6.77
2017-05-06T00:51:04.175Z,6.74
2017-05-06T00:52:04.955Z,6.78
2017-05-06T00:53:05.978Z,6.78
2017-05-06T00:54:06.754Z,6.74
2017-05-06T00:55:07.531Z,6.70
2017-05-06T00:56:08.307Z,6.77
2017-05-06T00:57:09.081Z,6.84
2017-05-06T00:58:10.105Z,6.79
2017-05-06T00:59:10.883Z,6.82
2017-05-06T01:00:11.659Z,6.85
2017-05-06T01:01:12.436Z,6.85
2017-05-06T01:02:13.404Z,6.84
2017-05-06T01:03:14.430Z,6.87
2017-05-06T01:04:15.207Z,6.87
2017-05-06T01:05:15.981Z,6.89
2017-05-06T01:06:16.754Z,6.82
2017-05-06T01:07:17.528Z,6.84
2017-05-06T01:08:18.552Z,6.93
2017-05-06T01:09:19.329Z,6.96
2017-05-06T01:10:20.103Z,6.85
2017-05-06T01:11:20.880Z,6.99
2017-05-06T01:12:21.654Z,6.99
2017-05-06T01:13:22.677Z,6.93
2017-05-06T01:14:23.452Z,6.96
2017-05-06T01:15:24.228Z,7.02
2017-05-06T01:16:25.005Z,7.02
2017-05-06T01:17:25.778Z,7.02
2017-05-06T01:18:26.804Z,7.03
2017-05-06T01:19:27.582Z,7.05
2017-05-06T01:20:28.356Z,7.06
2017-05-06T01:21:29.131Z,7.06
2017-05-06T01:22:29.906Z,7.06
2017-05-06T01:23:30.931Z,7.06
2017-05-06T01:24:31.707Z,7.11
2017-05-06T01:25:32.485Z,7.17
2017-05-06T01:26:33.264Z,7.07
2017-05-06T01:27:34.036Z,7.20
2017-05-06T01:28:35.064Z,7.15
2017-05-06T01:29:35.841Z,7.20
2017-05-06T01:30:36.617Z,7.20
2017-05-06T01:31:37.393Z,7.23
2017-05-06T01:32:38.169Z,7.24
2017-05-06T01:33:39.194Z,7.28
2017-05-06T01:34:39.969Z,7.21
2017-05-06T01:35:40.746Z,7.23
2017-05-06T01:36:41.521Z,7.28
2017-05-06T01:37:42.294Z,7.21
2017-05-06T01:38:43.318Z,7.21
2017-05-06T01:39:44.095Z,7.21
2017-05-06T01:40:44.869Z,7.21
2017-05-06T01:41:45.644Z,7.28
2017-05-06T01:42:46.422Z,7.21
2017-05-06T01:43:47.450Z,7.20
2017-05-06T01:44:48.231Z,7.15
2017-05-06T01:45:49.004Z,7.20
2017-05-06T01:46:49.777Z,7.18
2017-05-06T01:47:50.555Z,7.17
2017-05-06T01:48:51.581Z,7.18
2017-05-06T01:49:52.357Z,7.06
2017-05-06T01:50:53.131Z,7.14
2017-05-06T01:51:53.905Z,7.10
2017-05-06T01:52:54.681Z,7.11
2017-05-06T01:53:55.704Z,7.11
2017-05-06T01:54:56.486Z,7.11
2017-05-06T01:55:57.260Z,7.05
2017-05-06T01:56:58.036Z,7.13
2017-05-06T01:57:58.810Z,6.97
2017-05-06T01:58:59.835Z,7.02
2017-05-06T02:00:00.610Z,7.00
2017-05-06T02:01:01.384Z,7.00
2017-05-06T02:02:02.161Z,6.95
2017-05-06T02:03:02.936Z,6.96
2017-05-06T02:04:03.960Z,6.96
2017-05-06T02:05:04.734Z,6.97
2017-05-06T02:06:05.508Z,6.96
2017-05-06T02:07:06.282Z,6.97
2017-05-06T02:08:07.059Z,7.00
2017-05-06T02:09:08.084Z,6.99
2017-05-06T02:10:08.856Z,6.84
2017-05-06T02:11:09.633Z,6.89
2017-05-06T02:12:10.402Z,6.84
2017-05-06T02:13:11.177Z,6.88
2017-05-06T02:14:12.203Z,6.87
2017-05-06T02:15:12.977Z,6.92
2017-05-06T02:16:13.751Z,6.88
2017-05-06T02:17:14.524Z,6.89
2017-05-06T02:18:15.299Z,6.88
2017-05-06T02:19:16.520Z,6.87
2017-05-06T02:20:17.296Z,6.85
2017-05-06T02:21:18.073Z,6.87
2017-05-06T02:22:18.851Z,6.85
2017-05-06T02:23:19.623Z,6.81
2017-05-06T02:24:20.647Z,6.77
2017-05-06T02:25:21.422Z,6.79
2017-05-06T02:26:22.197Z,6.75
2017-05-06T02:27:22.971Z,6.79
2017-05-06T02:28:23.745Z,6.77
2017-05-06T02:29:24.769Z,6.82
2017-05-06T02:30:25.543Z,6.72
2017-05-06T02:31:26.319Z,6.70
2017-05-06T02:32:27.093Z,6.74
2017-05-06T02:33:27.868Z,6.70
2017-05-06T02:34:28.894Z,6.70
2017-05-06T02:35:29.669Z,6.69
2017-05-06T02:36:30.635Z,6.69
2017-05-06T02:37:31.412Z,6.74
2017-05-06T02:38:32.189Z,6.75
2017-05-06T02:39:33.217Z,6.74
2017-05-06T02:40:33.991Z,6.74
2017-05-06T02:41:34.769Z,6.70
2017-05-06T02:42:35.543Z,6.70
2017-05-06T02:43:36.319Z,6.75
2017-05-06T02:44:37.343Z,6.70
2017-05-06T02:45:38.119Z,6.69
2017-05-06T02:46:38.897Z,6.66
2017-05-06T02:47:39.673Z,6.72
2017-05-06T02:48:40.455Z,6.66
2017-05-06T02:49:41.477Z,6.64
2017-05-06T02:50:42.255Z,6.57
2017-05-06T02:51:43.030Z,6.59
2017-05-06T02:52:43.803Z,6.63
2017-05-06T02:53:44.578Z,6.56
2017-05-06T02:54:45.606Z,6.57
2017-05-06T02:55:46.379Z,6.57
2017-05-06T02:56:47.156Z,6.56
2017-05-06T02:57:47.930Z,6.52
2017-05-06T02:58:48.703Z,6.56
2017-05-06T02:59:49.780Z,6.56
2017-05-06T03:00:50.551Z,6.56
2017-05-06T03:01:51.325Z,6.46
2017-05-06T03:02:52.101Z,6.56
2017-05-06T03:03:52.874Z,6.46
2017-05-06T03:04:53.947Z,6.51
2017-05-06T03:05:54.724Z,6.38
2017-05-06T03:06:55.704Z,6.41
2017-05-06T03:07:56.477Z,6.39
2017-05-06T03:08:57.251Z,6.38
2017-05-06T03:09:58.277Z,6.38
2017-05-06T03:10:59.052Z,6.30
2017-05-06T03:11:59.828Z,6.36
2017-05-06T03:13:00.602Z,6.44
2017-05-06T03:14:01.379Z,6.39
2017-05-06T03:15:02.406Z,6.31
2017-05-06T03:16:03.183Z,6.27
2017-05-06T03:17:03.957Z,6.17
2017-05-06T03:18:04.734Z,6.24
2017-05-06T03:19:05.506Z,6.31
2017-05-06T03:20:06.536Z,6.14
2017-05-06T03:21:07.311Z,6.22
2017-05-06T03:22:08.085Z,6.17
2017-05-06T03:23:08.862Z,6.27
2017-05-06T03:24:09.833Z,6.22
2017-05-06T03:25:10.859Z,6.14
2017-05-06T03:26:11.634Z,6.27
2017-05-06T03:27:12.408Z,6.19
2017-05-06T03:28:13.188Z,6.17
2017-05-06T03:29:13.963Z,6.14
2017-05-06T03:30:14.991Z,6.14
2017-05-06T03:31:15.770Z,6.14
2017-05-06T03:32:16.544Z,6.17
2017-05-06T03:33:17.322Z,6.16
2017-05-06T03:34:18.097Z,6.16
2017-05-06T03:35:19.120Z,6.20
2017-05-06T03:36:19.895Z,6.16
2017-05-06T03:37:20.674Z,6.07
2017-05-06T03:38:21.456Z,6.16
2017-05-06T03:39:22.230Z,6.12
2017-05-06T03:40:23.255Z,6.16
2017-05-06T03:41:24.035Z,6.12
2017-05-06T03:42:24.812Z,6.17
2017-05-06T03:43:25.593Z,6.11
2017-05-06T03:44:26.372Z,6.11
2017-05-06T03:45:27.550Z,6.12
2017-05-06T03:46:28.332Z,6.07
2017-05-06T03:47:29.107Z,6.02
2017-05-06T03:48:29.886Z,6.17
2017-05-06T03:49:30.661Z,6.07
2017-05-06T03:50:31.688Z,6.16
2017-05-06T03:51:32.469Z,6.16
2017-05-06T03:52:33.243Z,6.09
2017-05-06T03:53:34.020Z,6.08
2017-05-06T03:54:34.794Z,6.09
2017-05-06T03:55:35.821Z,6.04
2017-05-06T03:56:36.603Z,6.04
2017-05-06T03:57:37.378Z,6.05
2017-05-06T03:58:38.156Z,6.11
2017-05-06T03:59:38.935Z,6.14
2017-05-06T04:00:39.966Z,6.14
2017-05-06T04:01:40.743Z,6.11
2017-05-06T04:02:41.518Z,6.20
2017-05-06T04:03:42.295Z,6.12
2017-05-06T04:04:43.276Z,6.22
2017-05-06T04:05:44.401Z,6.17
2017-05-06T04:06:45.176Z,6.38
2017-05-06T04:07:45.967Z,6.35
2017-05-06T04:08:46.816Z,6.42
2017-05-06T04:09:47.639Z,6.46
2017-05-06T04:10:48.678Z,6.38
2017-05-06T04:11:49.455Z,6.44
2017-05-06T04:12:50.265Z,6.51
2017-05-06T04:13:51.098Z,6.52
2017-05-06T04:14:51.889Z,6.45
2017-05-06T04:15:52.945Z,6.59
2017-05-06T04:16:53.756Z,6.51
2017-05-06T04:17:54.573Z,6.52
2017-05-06T04:18:55.345Z,6.57
2017-05-06T04:19:56.117Z,6.62
2017-05-06T04:20:57.142Z,6.69
2017-05-06T04:21:57.913Z,6.66
2017-05-06T04:22:58.686Z,6.72
2017-05-06T04:23:59.455Z,6.70
2017-05-06T04:25:00.226Z,6.72
2017-05-06T04:26:01.250Z,6.78
2017-05-06T04:27:02.024Z,6.72
2017-05-06T04:28:02.827Z,6.70
2017-05-06T04:29:03.589Z,6.74
2017-05-06T04:30:04.377Z,6.75
2017-05-06T04:31:05.722Z,6.77
2017-05-06T04:32:06.493Z,6.75
2017-05-06T04:33:07.266Z,6.85
2017-05-06T04:34:08.035Z,6.87
2017-05-06T04:35:08.809Z,6.87
2017-05-06T04:36:09.832Z,7.00
2017-05-06T04:37:10.606Z,6.82
2017-05-06T04:38:11.381Z,6.84
2017-05-06T04:39:12.155Z,6.93
2017-05-06T04:40:12.928Z,6.96
2017-05-06T04:41:13.953Z,6.99
2017-05-06T04:42:14.726Z,7.05
2017-05-06T04:43:15.502Z,7.05
2017-05-06T04:44:16.274Z,7.02
2017-05-06T04:45:17.050Z,7.07
2017-05-06T04:46:18.078Z,7.10
2017-05-06T04:47:18.849Z,7.06
2017-05-06T04:48:19.622Z,7.17
2017-05-06T04:49:20.396Z,7.21
2017-05-06T04:50:21.177Z,7.17
2017-05-06T04:51:22.203Z,7.20
2017-05-06T04:52:22.977Z,7.18
2017-05-06T04:53:23.753Z,7.17
2017-05-06T04:54:24.525Z,7.25
2017-05-06T04:55:25.298Z,7.18
2017-05-06T04:56:26.325Z,7.24
2017-05-06T04:57:27.103Z,7.25
2017-05-06T04:58:27.877Z,7.35
2017-05-06T04:59:28.654Z,7.33
2017-05-06T05:00:29.425Z,7.39
2017-05-06T05:01:30.451Z,7.42
2017-05-06T05:02:31.223Z,7.51
2017-05-06T05:03:31.993Z,7.48
2017-05-06T05:04:32.766Z,7.42
2017-05-06T05:05:33.541Z,7.51
2017-05-06T05:06:34.567Z,7.56
2017-05-06T05:07:35.341Z,7.51
2017-05-06T05:08:36.118Z,7.70
2017-05-06T05:09:36.895Z,7.56
2017-05-06T05:10:37.672Z,7.67
2017-05-06T05:11:38.699Z,7.70
2017-05-06T05:12:39.471Z,7.69
2017-05-06T05:13:40.248Z,7.66
2017-05-06T05:14:41.021Z,7.77
2017-05-06T05:15:41.798Z,7.75
2017-05-06T05:16:42.821Z,7.83
2017-05-06T05:17:43.596Z,7.91
2017-05-06T05:18:44.368Z,7.87
2017-05-06T05:19:45.146Z,7.95
2017-05-06T05:20:45.919Z,7.95
2017-05-06T05:21:46.944Z,7.97
2017-05-06T05:22:47.722Z,8.00
2017-05-06T05:23:48.495Z,7.97
2017-05-06T05:24:49.267Z,8.03
2017-05-06T05:25:50.044Z,7.98
2017-05-06T05:26:51.092Z,7.98
2017-05-06T05:27:51.839Z,8.06
2017-05-06T05:28:52.615Z,8.09
2017-05-06T05:29:53.390Z,8.16
2017-05-06T05:30:54.165Z,8.15
2017-05-06T05:31:55.191Z,8.12
2017-05-06T05:32:55.961Z,8.09
2017-05-06T05:33:56.738Z,8.13
2017-05-06T05:34:57.514Z,8.09
2017-05-06T05:35:58.290Z,8.09
2017-05-06T05:36:59.316Z,8.24
2017-05-06T05:38:00.098Z,8.20
2017-05-06T05:39:00.875Z,8.16
2017-05-06T05:40:01.648Z,8.19
2017-05-06T05:41:02.424Z,8.30
2017-05-06T05:42:03.446Z,8.26
2017-05-06T05:43:04.219Z,8.28
2017-05-06T05:44:04.991Z,8.27
2017-05-06T05:45:05.768Z,8.28
2017-05-06T05:46:06.541Z,8.23
2017-05-06T05:47:07.568Z,8.27
2017-05-06T05:48:08.342Z,8.37
2017-05-06T05:49:09.120Z,8.34
2017-05-06T05:50:09.891Z,8.36
2017-05-06T05:51:10.667Z,8.48
2017-05-06T05:52:11.694Z,8.34
2017-05-06T05:53:12.470Z,8.46
2017-05-06T05:54:13.246Z,8.44
2017-05-06T05:55:14.020Z,8.55
2017-05-06T05:56:14.796Z,8.55
2017-05-06T05:57:15.820Z,8.52
2017-05-06T05:58:16.592Z,8.55
2017-05-06T05:59:17.366Z,8.70
2017-05-06T06:00:18.142Z,8.73
2017-05-06T06:01:18.918Z,8.76
2017-05-06T06:02:19.944Z,8.76
2017-05-06T06:03:20.735Z,8.82
2017-05-06T06:04:21.497Z,8.87
2017-05-06T06:05:22.272Z,8.99
2017-05-06T06:06:23.047Z,9.03
2017-05-06T06:07:24.576Z,9.10
2017-05-06T06:08:25.354Z,9.16
2017-05-06T06:09:26.126Z,9.21
2017-05-06T06:10:26.901Z,9.28
2017-05-06T06:11:27.678Z,9.32
2017-05-06T06:12:28.707Z,9.41
2017-05-06T06:13:29.483Z,9.43
2017-05-06T06:14:30.259Z,9.54
2017-05-06T06:15:31.037Z,9.48
2017-05-06T06:16:31.814Z,9.64
2017-05-06T06:17:32.839Z,9.69
2017-05-06T06:18:33.621Z,9.72
2017-05-06T06:19:34.392Z,9.77
2017-05-06T06:20:35.168Z,9.83
2017-05-06T06:21:35.945Z,9.80
2017-05-06T06:22:36.972Z,9.89
2017-05-06T06:23:37.753Z,9.82
2017-05-06T06:24:38.527Z,9.87
2017-05-06T06:25:39.304Z,9.99
2017-05-06T06:26:40.079Z,9.98
2017-05-06T06:27:41.110Z,10.05
2017-05-06T06:28:41.886Z,10.12
2017-05-06T06:29:42.666Z,10.20
2017-05-06T06:30:43.443Z,10.20
2017-05-06T06:31:44.218Z,10.23
2017-05-06T06:32:45.251Z,10.22
2017-05-06T06:34:28.666Z,10.07
2017-05-06T06:35:29.447Z,10.09
2017-05-06T06:36:30.226Z,10.09
2017-05-06T06:37:31.006Z,10.02
2017-05-06T06:38:32.033Z,10.13
2017-05-06T06:39:32.814Z,10.15
2017-05-06T06:40:33.593Z,10.25
2017-05-06T06:41:34.370Z,10.16
2017-05-06T06:42:35.150Z,10.25
2017-05-06T06:43:36.179Z,10.37
2017-05-06T06:44:36.959Z,10.42
2017-05-06T06:45:37.757Z,10.53
2017-05-06T06:46:38.515Z,10.59
2017-05-06T06:47:39.294Z,10.69
2017-05-06T06:48:40.322Z,10.82
2017-05-06T06:49:41.102Z,10.89
2017-05-06T06:50:41.880Z,11.04
2017-05-06T06:51:42.660Z,11.17
2017-05-06T06:52:43.440Z,11.27
2017-05-06T06:53:44.471Z,11.43
2017-05-06T06:54:45.249Z,11.30
2017-05-06T06:55:46.028Z,11.32
2017-05-06T06:56:46.807Z,11.32
2017-05-06T06:57:47.586Z,11.37
2017-05-06T06:58:48.618Z,11.33
2017-05-06T06:59:49.398Z,11.40
2017-05-06T07:00:50.179Z,11.48
2017-05-06T07:01:50.961Z,11.57
2017-05-06T07:02:51.742Z,11.65
2017-05-06T07:03:52.775Z,11.80
2017-05-06T07:04:53.558Z,12.00
2017-05-06T07:05:54.338Z,12.07
2017-05-06T07:06:55.122Z,12.03
2017-05-06T07:07:55.907Z,11.88
2017-05-06T07:08:56.940Z,11.91
2017-05-06T07:09:57.724Z,12.10
2017-05-06T07:10:58.507Z,12.13
2017-05-06T07:11:59.290Z,12.25
2017-05-06T07:13:00.075Z,12.17
2017-05-06T07:14:01.107Z,12.02
2017-05-06T07:15:01.889Z,12.21
2017-05-06T07:16:02.671Z,12.24
2017-05-06T07:17:03.455Z,12.25
2017-05-06T07:18:04.238Z,12.35
2017-05-06T07:19:05.273Z,12.29
2017-05-06T07:20:06.058Z,12.50
2017-05-06T07:21:06.841Z,12.42
2017-05-06T07:22:07.626Z,12.15
2017-05-06T07:23:08.410Z,12.40
2017-05-06T07:24:09.448Z,12.58
2017-05-06T07:25:10.227Z,12.78
2017-05-06T07:26:11.011Z,12.91
2017-05-06T07:27:11.795Z,13.13
2017-05-06T07:28:12.578Z,13.27
2017-05-06T07:29:13.614Z,13.31
2017-05-06T07:30:14.401Z,13.50
2017-05-06T07:31:15.185Z,13.37
2017-05-06T07:32:15.973Z,13.22
2017-05-06T07:33:16.758Z,13.01
2017-05-06T07:34:17.791Z,12.80
2017-05-06T07:35:18.577Z,12.93
2017-05-06T07:36:19.363Z,13.18
2017-05-06T07:37:20.149Z,13.13
2017-05-06T07:38:20.934Z,13.31
2017-05-06T07:39:21.971Z,13.01
2017-05-06T07:40:22.757Z,12.87
2017-05-06T07:41:23.553Z,12.75
2017-05-06T07:42:24.326Z,12.78
2017-05-06T07:43:25.110Z,12.61
2017-05-06T07:44:26.145Z,12.49
2017-05-06T07:45:26.932Z,12.46
2017-05-06T07:46:27.718Z,12.54
2017-05-06T07:47:28.502Z,12.49
2017-05-06T07:48:29.287Z,12.55
2017-05-06T07:49:30.322Z,12.68
2017-05-06T07:50:31.109Z,12.72
2017-05-06T07:51:31.894Z,12.95
2017-05-06T07:52:32.688Z,13.25
2017-05-06T07:53:33.526Z,13.63
2017-05-06T07:54:34.563Z,13.63
2017-05-06T07:55:35.351Z,13.70
2017-05-06T07:56:36.138Z,13.74
2017-05-06T07:57:36.926Z,14.08
2017-05-06T07:58:37.715Z,13.60
2017-05-06T07:59:38.754Z,13.81
2017-05-06T08:00:39.542Z,13.77
2017-05-06T08:01:40.329Z,13.93
2017-05-06T08:02:41.117Z,14.26
2017-05-06T08:03:41.905Z,14.54
2017-05-06T08:04:42.945Z,14.78
2017-05-06T08:05:43.735Z,14.70
2017-05-06T08:06:44.525Z,14.77
2017-05-06T08:07:45.316Z,14.96
2017-05-06T08:08:46.107Z,15.07
2017-05-06T08:09:47.146Z,15.09
2017-05-06T08:10:47.938Z,15.64
2017-05-06T08:11:48.723Z,15.49
2017-05-06T08:12:49.516Z,15.65
2017-05-06T08:13:50.309Z,15.61
2017-05-06T08:14:51.353Z,15.79
2017-05-06T08:15:52.145Z,15.94
2017-05-06T08:16:52.940Z,16.09
2017-05-06T08:17:53.731Z,16.01
2017-05-06T08:18:54.548Z,15.92
2017-05-06T08:19:55.568Z,15.79
2017-05-06T08:20:56.357Z,15.77
2017-05-06T08:21:57.149Z,15.84
2017-05-06T08:22:57.942Z,15.79
2017-05-06T08:23:58.736Z,16.01
2017-05-06T08:24:59.781Z,16.21
2017-05-06T08:26:00.575Z,16.05
2017-05-06T08:27:01.368Z,15.95
2017-05-06T08:28:02.159Z,15.97
2017-05-06T08:29:02.949Z,15.80
2017-05-06T08:30:03.993Z,15.98
2017-05-06T08:31:04.786Z,15.75
2017-05-06T08:32:05.579Z,15.46
2017-05-06T08:33:06.372Z,15.55
2017-05-06T08:34:07.166Z,15.73
2017-05-06T08:35:08.211Z,15.61
2017-05-06T08:36:09.001Z,15.55
2017-05-06T08:37:09.793Z,15.83
2017-05-06T08:38:10.586Z,16.08
2017-05-06T08:39:11.378Z,16.12
2017-05-06T08:40:12.424Z,16.56
2017-05-06T08:41:13.219Z,17.02
2017-05-06T08:42:14.020Z,17.08
2017-05-06T08:43:14.814Z,16.83
2017-05-06T08:44:15.613Z,16.84
2017-05-06T08:45:16.662Z,16.76
2017-05-06T08:46:17.456Z,17.11
2017-05-06T08:47:18.253Z,17.36
2017-05-06T08:48:19.049Z,17.39
2017-05-06T08:49:19.847Z,17.39
2017-05-06T08:50:20.891Z,17.46
2017-05-06T08:51:21.687Z,17.27
2017-05-06T08:52:22.480Z,17.26
2017-05-06T08:53:23.272Z,16.90
2017-05-06T08:54:24.066Z,17.30
2017-05-06T08:55:25.108Z,17.38
2017-05-06T08:56:25.904Z,17.24
2017-05-06T08:57:26.699Z,16.75
2017-05-06T08:58:27.493Z,16.64
2017-05-06T08:59:28.285Z,16.87
2017-05-06T09:00:29.327Z,17.22
2017-05-06T09:01:30.120Z,17.54
2017-05-06T09:02:30.915Z,17.65
2017-05-06T09:03:31.711Z,17.52
2017-05-06T09:04:32.504Z,17.44
2017-05-06T09:05:33.547Z,17.60
2017-05-06T09:06:34.338Z,17.65
2017-05-06T09:07:35.135Z,18.03
2017-05-06T09:08:35.929Z,18.00
2017-05-06T09:09:36.723Z,18.19
2017-05-06T09:10:37.956Z,18.08
2017-05-06T09:11:38.749Z,18.25
2017-05-06T09:12:39.545Z,18.47
2017-05-06T09:13:40.340Z,18.75
2017-05-06T09:14:41.137Z,18.95
2017-05-06T09:15:42.180Z,19.14
2017-05-06T09:16:42.978Z,19.11
2017-05-06T09:17:43.769Z,19.19
2017-05-06T09:18:44.564Z,18.99
2017-05-06T09:19:45.357Z,18.98
2017-05-06T09:20:46.404Z,18.88
2017-05-06T09:21:47.201Z,18.95
2017-05-06T09:22:47.996Z,18.81
2017-05-06T09:23:48.791Z,19.19
2017-05-06T09:24:49.586Z,19.18
2017-05-06T09:25:50.632Z,19.39
2017-05-06T09:26:51.431Z,19.21
2017-05-06T09:27:52.229Z,19.79
2017-05-06T09:28:53.236Z,20.22
2017-05-06T09:29:54.016Z,19.64
2017-05-06T09:30:55.064Z,19.70
2017-05-06T09:31:55.860Z,20.07
2017-05-06T09:32:56.655Z,20.13
2017-05-06T09:33:57.451Z,19.95
2017-05-06T09:34:58.251Z,20.22
2017-05-06T09:35:59.303Z,20.22
2017-05-06T09:37:00.101Z,19.99
2017-05-06T09:38:00.900Z,19.81
2017-05-06T09:39:01.698Z,20.32
2017-05-06T09:40:02.497Z,19.88
2017-05-06T09:41:03.544Z,20.07
2017-05-06T09:42:04.340Z,19.69
2017-05-06T09:43:05.138Z,19.79
2017-05-06T09:44:05.930Z,20.22
2017-05-06T09:45:06.725Z,20.25
2017-05-06T09:46:07.778Z,19.96
2017-05-06T09:47:08.573Z,20.00
2017-05-06T09:48:09.370Z,19.91
2017-05-06T09:49:10.165Z,20.09
2017-05-06T09:50:10.962Z,20.26
2017-05-06T09:51:12.009Z,20.58
2017-05-06T09:52:12.807Z,20.56
2017-05-06T09:53:13.606Z,20.22
2017-05-06T09:54:14.401Z,20.07
2017-05-06T09:55:15.201Z,20.29
2017-05-06T09:56:16.248Z,20.69
2017-05-06T09:57:17.043Z,20.60
2017-05-06T09:58:17.838Z,20.66
2017-05-06T09:59:18.638Z,20.81
2017-05-06T10:00:19.434Z,20.95
2017-05-06T10:01:20.486Z,20.77
2017-05-06T10:02:21.282Z,20.70
2017-05-06T10:03:22.082Z,20.59
2017-05-06T10:04:22.885Z,20.25
2017-05-06T10:05:23.686Z,20.43
2017-05-06T10:06:24.736Z,20.19
2017-05-06T10:07:25.544Z,20.19
2017-05-06T10:08:26.341Z,20.51
2017-05-06T10:09:27.147Z,19.89
2017-05-06T10:10:27.945Z,20.36
2017-05-06T10:11:29.000Z,20.56
2017-05-06T10:12:29.805Z,20.62
2017-05-06T10:13:30.605Z,20.95
2017-05-06T10:14:31.406Z,21.24
2017-05-06T10:15:32.210Z,20.75
2017-05-06T10:16:33.256Z,20.81
2017-05-06T10:17:34.054Z,21.15
2017-05-06T10:18:34.851Z,20.70
2017-05-06T10:19:35.654Z,20.62
2017-05-06T10:20:36.451Z,20.65
2017-05-06T10:21:37.501Z,20.62
2017-05-06T10:22:38.304Z,20.41
2017-05-06T10:23:39.106Z,20.32
2017-05-06T10:24:39.905Z,20.24
2017-05-06T10:25:40.703Z,20.84
2017-05-06T10:26:41.756Z,21.24
2017-05-06T10:27:42.558Z,20.99
2017-05-06T10:28:43.363Z,20.93
2017-05-06T10:29:44.164Z,20.87
2017-05-06T10:30:44.972Z,20.88
2017-05-06T10:31:46.030Z,21.29
2017-05-06T10:32:46.833Z,21.15
2017-05-06T10:33:47.646Z,20.85
2017-05-06T10:34:48.444Z,20.10
2017-05-06T10:35:49.247Z,19.48
2017-05-06T10:36:50.303Z,19.39
2017-05-06T10:37:51.108Z,19.77
2017-05-06T10:38:51.914Z,20.11
2017-05-06T10:39:52.722Z,20.24
2017-05-06T10:40:53.529Z,20.28
2017-05-06T10:41:54.582Z,20.44
2017-05-06T10:42:55.386Z,20.56
2017-05-06T10:43:56.182Z,20.60
2017-05-06T10:44:56.979Z,20.60
2017-05-06T10:45:57.778Z,21.12
2017-05-06T10:46:58.828Z,21.43
2017-05-06T10:47:59.628Z,21.66
2017-05-06T10:49:00.430Z,22.10
2017-05-06T10:50:01.230Z,22.29
2017-05-06T10:51:02.037Z,21.51
2017-05-06T10:52:03.093Z,21.33
2017-05-06T10:53:03.886Z,21.18
2017-05-06T10:54:04.685Z,21.37
2017-05-06T10:55:05.480Z,21.69
2017-05-06T10:56:06.276Z,21.54
2017-05-06T10:57:07.322Z,20.92
2017-05-06T10:58:08.117Z,20.77
2017-05-06T10:59:08.913Z,20.88
2017-05-06T11:00:09.711Z,20.82
2017-05-06T11:01:10.507Z,21.27
2017-05-06T11:02:11.549Z,21.60
2017-05-06T11:03:12.343Z,21.43
2017-05-06T11:04:13.140Z,21.22
2017-05-06T11:05:13.935Z,20.78
2017-05-06T11:06:14.736Z,20.47
2017-05-06T11:07:15.791Z,20.78
2017-05-06T11:08:16.709Z,20.50
2017-05-06T11:09:17.514Z,20.81
2017-05-06T11:10:18.374Z,20.90
2017-05-06T11:11:19.222Z,20.78
2017-05-06T11:12:20.264Z,20.85
2017-05-06T11:13:21.056Z,20.26
2017-05-06T11:14:21.849Z,19.62
2017-05-06T11:15:22.644Z,19.51
2017-05-06T11:16:23.535Z,19.55
2017-05-06T11:17:24.570Z,19.64
2017-05-06T11:18:25.360Z,19.66
2017-05-06T11:19:26.152Z,19.89
2017-05-06T11:20:27.132Z,19.91
2017-05-06T11:21:27.920Z,20.31
2017-05-06T11:22:28.963Z,20.40
2017-05-06T11:23:29.753Z,20.09
2017-05-06T11:24:30.551Z,19.82
2017-05-06T11:25:31.342Z,19.84
2017-05-06T11:26:32.136Z,19.62
2017-05-06T11:27:33.179Z,19.49
2017-05-06T11:28:33.966Z,19.81
2017-05-06T11:29:34.754Z,20.00
2017-05-06T11:30:35.545Z,20.48
2017-05-06T11:31:36.347Z,20.63
2017-05-06T11:32:37.390Z,20.60
2017-05-06T11:33:38.179Z,20.22
2017-05-06T11:34:38.971Z,20.21
2017-05-06T11:35:39.765Z,20.19
2017-05-06T11:36:40.554Z,20.32
2017-05-06T11:37:41.645Z,20.19
2017-05-06T11:38:42.437Z,20.21
2017-05-06T11:39:43.226Z,20.36
2017-05-06T11:40:44.204Z,20.60
2017-05-06T11:41:44.996Z,21.15
2017-05-06T11:42:46.042Z,21.61
2017-05-06T11:43:46.832Z,21.57
2017-05-06T11:44:47.625Z,21.58
2017-05-06T11:45:48.421Z,21.85
2017-05-06T11:46:49.219Z,21.83
2017-05-06T11:47:50.376Z,22.11
2017-05-06T11:48:51.186Z,21.85
2017-05-06T11:49:52.072Z,21.93
2017-05-06T11:50:52.876Z,22.11
2017-05-06T11:51:53.672Z,22.13
2017-05-06T11:52:54.714Z,21.70
2017-05-06T11:53:55.512Z,22.15
2017-05-06T11:54:56.358Z,21.76
2017-05-06T11:55:57.200Z,21.93
2017-05-06T11:56:58.000Z,22.25
2017-05-06T11:57:59.050Z,22.57
2017-05-06T11:58:59.847Z,22.48
2017-05-06T12:00:00.680Z,22.96
2017-05-06T12:01:01.592Z,22.68
2017-05-06T12:02:02.448Z,22.75
2017-05-06T12:03:03.496Z,22.48
2017-05-06T12:04:04.310Z,22.65
2017-05-06T12:05:05.164Z,22.73
2017-05-06T12:06:05.985Z,23.31
2017-05-06T12:07:06.813Z,23.61
2017-05-06T12:08:07.874Z,23.13
2017-05-06T12:09:08.672Z,23.03
2017-05-06T12:10:09.470Z,22.93
2017-05-06T12:11:10.308Z,23.08
2017-05-06T12:12:11.107Z,22.85
2017-05-06T12:13:12.158Z,22.43
2017-05-06T12:14:12.948Z,22.87
2017-05-06T12:15:13.750Z,23.06
2017-05-06T12:16:14.547Z,23.65
2017-05-06T12:17:15.411Z,23.71
2017-05-06T12:18:16.593Z,22.60
2017-05-06T12:19:17.488Z,22.66
2017-05-06T12:20:18.282Z,22.53
2017-05-06T12:21:19.076Z,21.82
2017-05-06T12:22:19.871Z,22.11
2017-05-06T12:23:21.071Z,22.35
2017-05-06T12:24:21.877Z,23.03
2017-05-06T12:25:22.674Z,23.68
2017-05-06T12:26:23.473Z,23.80
2017-05-06T12:27:24.308Z,23.59
2017-05-06T12:28:25.439Z,24.01
2017-05-06T12:29:26.295Z,23.73
2017-05-06T12:30:27.116Z,23.80
2017-05-06T12:31:27.919Z,23.10
2017-05-06T12:32:28.720Z,23.40
2017-05-06T12:33:29.787Z,22.63
2017-05-06T12:34:30.584Z,22.55
2017-05-06T12:35:31.436Z,21.91
2017-05-06T12:36:32.193Z,21.95
2017-05-06T12:37:32.990Z,21.54
2017-05-06T12:38:34.124Z,21.46
2017-05-06T12:39:34.917Z,21.82
2017-05-06T12:40:35.777Z,22.57
2017-05-06T12:41:36.567Z,23.06
2017-05-06T12:42:37.370Z,23.27
2017-05-06T12:43:38.527Z,23.09
2017-05-06T12:44:39.326Z,22.20
2017-05-06T12:45:40.139Z,21.20
2017-05-06T12:46:40.933Z,22.04
2017-05-06T12:47:41.728Z,22.60
2017-05-06T12:48:42.883Z,22.15
2017-05-06T12:49:43.697Z,22.35
2017-05-06T12:50:44.496Z,23.08
2017-05-06T12:51:45.288Z,22.93
2017-05-06T12:52:46.142Z,22.53
2017-05-06T12:53:47.240Z,21.27
2017-05-06T12:54:48.062Z,21.32
2017-05-06T12:55:48.872Z,21.58
2017-05-06T12:56:49.856Z,21.99
2017-05-06T12:57:50.642Z,21.95
2017-05-06T12:58:51.683Z,22.08
2017-05-06T12:59:52.476Z,22.57
2017-05-06T13:00:53.272Z,22.73
2017-05-06T13:01:54.125Z,22.68
2017-05-06T13:02:54.922Z,22.28
2017-05-06T13:03:55.968Z,22.30
2017-05-06T13:04:56.763Z,22.83
2017-05-06T13:05:57.562Z,23.03
2017-05-06T13:06:58.354Z,23.47
2017-05-06T13:07:59.150Z,23.96
2017-05-06T13:09:00.201Z,24.42
2017-05-06T13:10:00.998Z,24.45
2017-05-06T13:11:01.789Z,24.65
2017-05-06T13:12:02.587Z,24.47
2017-05-06T13:13:03.384Z,24.53
2017-05-06T13:14:04.431Z,24.55
2017-05-06T13:15:05.228Z,24.47
2017-05-06T13:16:06.022Z,24.21
2017-05-06T13:17:06.822Z,23.56